sensor_id;sensor_type;location;lat;lon;timestamp;pressure;altitude;pressure_sealevel;temperature;humidity
74893;BME280;63446;56.272;43.922;2022-12-13T00:01:33;100642.09;;;-1.86;64.29
74893;BME280;63446;56.272;43.922;2022-12-13T00:04:02;100641.44;;;-1.88;64.33
74893;BME280;63446;56.272;43.922;2022-12-13T00:06:28;100647.81;;;-1.91;64.36
74893;BME280;63446;56.272;43.922;2022-12-13T00:08:56;100635.41;;;-1.95;64.30
74893;BME280;63446;56.272;43.922;2022-12-13T00:11:22;100644.59;;;-1.93;64.33
74893;BME280;63446;56.272;43.922;2022-12-13T00:13:48;100637.63;;;-1.92;64.19
74893;BME280;63446;56.272;43.922;2022-12-13T00:16:16;100639.50;;;-1.86;64.37
74893;BME280;63446;56.272;43.922;2022-12-13T00:18:47;100632.41;;;-1.78;64.06
74893;BME280;63446;56.272;43.922;2022-12-13T00:21:16;100630.97;;;-1.65;63.93
74893;BME280;63446;56.272;43.922;2022-12-13T00:23:44;100626.75;;;-1.52;64.00
74893;BME280;63446;56.272;43.922;2022-12-13T00:26:12;100628.31;;;-1.36;63.70
74893;BME280;63446;56.272;43.922;2022-12-13T00:28:39;100636.41;;;-1.24;63.59
74893;BME280;63446;56.272;43.922;2022-12-13T00:31:06;100642.34;;;-1.09;63.36
74893;BME280;63446;56.272;43.922;2022-12-13T00:33:32;100650.63;;;-0.99;63.34
74893;BME280;63446;56.272;43.922;2022-12-13T00:35:58;100640.94;;;-0.90;63.24
74893;BME280;63446;56.272;43.922;2022-12-13T00:38:24;100651.38;;;-0.83;63.07
74893;BME280;63446;56.272;43.922;2022-12-13T00:40:50;100650.59;;;-0.77;62.88
74893;BME280;63446;56.272;43.922;2022-12-13T00:43:17;100658.66;;;-0.72;62.82
74893;BME280;63446;56.272;43.922;2022-12-13T00:45:42;100657.72;;;-0.64;62.72
74893;BME280;63446;56.272;43.922;2022-12-13T00:48:08;100661.34;;;-0.59;62.63
74893;BME280;63446;56.272;43.922;2022-12-13T00:50:36;100666.16;;;-0.56;62.63
74893;BME280;63446;56.272;43.922;2022-12-13T00:53:05;100670.38;;;-0.55;62.44
74893;BME280;63446;56.272;43.922;2022-12-13T00:55:30;100671.00;;;-0.53;62.44
74893;BME280;63446;56.272;43.922;2022-12-13T00:57:56;100649.97;;;-0.58;62.38
74893;BME280;63446;56.272;43.922;2022-12-13T01:00:22;100655.66;;;-0.47;62.44
74893;BME280;63446;56.272;43.922;2022-12-13T01:02:51;100660.47;;;-0.44;62.43
74893;BME280;63446;56.272;43.922;2022-12-13T01:05:18;100662.69;;;-0.41;62.30
74893;BME280;63446;56.272;43.922;2022-12-13T01:07:44;100657.94;;;-0.38;62.36
74893;BME280;63446;56.272;43.922;2022-12-13T01:10:11;100665.31;;;-0.35;62.22
74893;BME280;63446;56.272;43.922;2022-12-13T01:12:38;100656.56;;;-0.34;62.14
74893;BME280;63446;56.272;43.922;2022-12-13T01:15:05;100664.94;;;-0.32;62.27
74893;BME280;63446;56.272;43.922;2022-12-13T01:17:33;100666.56;;;-0.31;62.25
74893;BME280;63446;56.272;43.922;2022-12-13T01:20:01;100658.56;;;-0.29;62.20
74893;BME280;63446;56.272;43.922;2022-12-13T01:22:29;100662.78;;;-0.28;62.20
74893;BME280;63446;56.272;43.922;2022-12-13T01:24:55;100660.16;;;-0.28;62.19
74893;BME280;63446;56.272;43.922;2022-12-13T01:27:21;100666.16;;;-0.28;62.03
74893;BME280;63446;56.272;43.922;2022-12-13T01:29:47;100665.38;;;-0.28;62.11
74893;BME280;63446;56.272;43.922;2022-12-13T01:32:13;100669.97;;;-0.23;62.26
74893;BME280;63446;56.272;43.922;2022-12-13T01:34:39;100665.00;;;-0.25;62.18
74893;BME280;63446;56.272;43.922;2022-12-13T01:37:06;100666.00;;;-0.26;62.20
74893;BME280;63446;56.272;43.922;2022-12-13T01:39:31;100672.78;;;-0.25;62.18
74893;BME280;63446;56.272;43.922;2022-12-13T01:41:57;100658.00;;;-0.25;62.27
74893;BME280;63446;56.272;43.922;2022-12-13T01:48:01;100664.78;;;-0.23;62.31
74893;BME280;63446;56.272;43.922;2022-12-13T01:50:34;100659.81;;;-0.25;62.24
74893;BME280;63446;56.272;43.922;2022-12-13T01:53:04;100670.81;;;-0.23;62.23
74893;BME280;63446;56.272;43.922;2022-12-13T01:55:33;100666.97;;;-0.27;62.29
74893;BME280;63446;56.272;43.922;2022-12-13T01:58:03;100666.78;;;-0.26;62.41
74893;BME280;63446;56.272;43.922;2022-12-13T02:00:32;100665.19;;;-0.27;62.31
74893;BME280;63446;56.272;43.922;2022-12-13T02:03:00;100677.97;;;-0.25;62.30
74893;BME280;63446;56.272;43.922;2022-12-13T02:05:33;100671.63;;;-0.22;62.34
74893;BME280;63446;56.272;43.922;2022-12-13T02:08:01;100667.00;;;-0.20;62.45
74893;BME280;63446;56.272;43.922;2022-12-13T02:10:28;100665.41;;;-0.21;62.39
74893;BME280;63446;56.272;43.922;2022-12-13T02:12:54;100665.41;;;-0.21;62.38
74893;BME280;63446;56.272;43.922;2022-12-13T02:15:21;100663.41;;;-0.19;62.60
74893;BME280;63446;56.272;43.922;2022-12-13T02:18:12;100667.00;;;-0.20;62.50
74893;BME280;63446;56.272;43.922;2022-12-13T02:26:43;100678.84;;;-0.18;62.67
74893;BME280;63446;56.272;43.922;2022-12-13T02:31:58;100672.63;;;-0.17;62.76
74893;BME280;63446;56.272;43.922;2022-12-13T02:34:38;100670.84;;;-0.16;62.74
74893;BME280;63446;56.272;43.922;2022-12-13T02:37:22;100673.63;;;-0.18;62.85
74893;BME280;63446;56.272;43.922;2022-12-13T02:42:30;100665.47;;;-0.15;62.89
74893;BME280;63446;56.272;43.922;2022-12-13T02:45:05;100673.25;;;-0.15;63.01
74893;BME280;63446;56.272;43.922;2022-12-13T02:47:36;100666.06;;;-0.13;62.97
74893;BME280;63446;56.272;43.922;2022-12-13T02:50:06;100668.28;;;-0.10;63.15
74893;BME280;63446;56.272;43.922;2022-12-13T02:52:33;100667.28;;;-0.09;63.13
74893;BME280;63446;56.272;43.922;2022-12-13T02:54:59;100675.09;;;-0.09;63.16
74893;BME280;63446;56.272;43.922;2022-12-13T03:00:03;100671.50;;;-0.08;63.28
74893;BME280;63446;56.272;43.922;2022-12-13T03:05:18;100677.09;;;-0.11;63.46
74893;BME280;63446;56.272;43.922;2022-12-13T03:08:16;100678.06;;;-0.12;63.50
74893;BME280;63446;56.272;43.922;2022-12-13T03:11:13;100691.03;;;-0.12;63.42
74893;BME280;63446;56.272;43.922;2022-12-13T03:13:56;100678.47;;;-0.15;63.48
74893;BME280;63446;56.272;43.922;2022-12-13T03:16:50;100690.66;;;-0.15;63.60
74893;BME280;63446;56.272;43.922;2022-12-13T03:19:18;100676.22;;;-0.18;63.59
74893;BME280;63446;56.272;43.922;2022-12-13T03:21:47;100687.06;;;-0.14;63.56
74893;BME280;63446;56.272;43.922;2022-12-13T03:24:15;100689.44;;;-0.13;63.52
74893;BME280;63446;56.272;43.922;2022-12-13T03:26:42;100681.66;;;-0.13;63.66
74893;BME280;63446;56.272;43.922;2022-12-13T03:29:08;100685.84;;;-0.12;63.58
74893;BME280;63446;56.272;43.922;2022-12-13T03:31:33;100686.06;;;-0.13;63.67
74893;BME280;63446;56.272;43.922;2022-12-13T03:33:59;100671.09;;;-0.11;63.58
74893;BME280;63446;56.272;43.922;2022-12-13T03:36:25;100675.28;;;-0.10;63.52
74893;BME280;63446;56.272;43.922;2022-12-13T03:38:52;100682.06;;;-0.09;63.34
74893;BME280;63446;56.272;43.922;2022-12-13T03:41:23;100667.28;;;-0.09;63.39
74893;BME280;63446;56.272;43.922;2022-12-13T03:44:02;100664.31;;;-0.06;63.23
74893;BME280;63446;56.272;43.922;2022-12-13T03:46:29;100653.91;;;-0.06;63.26
74893;BME280;63446;56.272;43.922;2022-12-13T03:48:55;100660.34;;;-0.02;63.25
74893;BME280;63446;56.272;43.922;2022-12-13T03:51:21;100656.75;;;-0.01;63.16
74893;BME280;63446;56.272;43.922;2022-12-13T03:53:47;100651.97;;;0.03;63.03
74893;BME280;63446;56.272;43.922;2022-12-13T03:56:13;100662.19;;;0.05;63.11
74893;BME280;63446;56.272;43.922;2022-12-13T03:58:39;100652.59;;;0.05;62.92
74893;BME280;63446;56.272;43.922;2022-12-13T04:01:09;100648.19;;;0.06;63.03
74893;BME280;63446;56.272;43.922;2022-12-13T04:03:36;100654.19;;;0.06;62.93
74893;BME280;63446;56.272;43.922;2022-12-13T04:06:03;100644.00;;;0.05;62.84
74893;BME280;63446;56.272;43.922;2022-12-13T04:08:28;100659.97;;;0.02;62.90
74893;BME280;63446;56.272;43.922;2022-12-13T04:10:55;100651.94;;;-0.04;62.85
74893;BME280;63446;56.272;43.922;2022-12-13T04:13:20;100661.56;;;0.03;62.80
74893;BME280;63446;56.272;43.922;2022-12-13T04:15:59;100660.56;;;0.04;62.88
74893;BME280;63446;56.272;43.922;2022-12-13T04:18:25;100649.56;;;0.02;62.87
74893;BME280;63446;56.272;43.922;2022-12-13T04:20:51;100657.31;;;-0.05;62.77
74893;BME280;63446;56.272;43.922;2022-12-13T04:23:17;100659.91;;;-0.05;62.76
74893;BME280;63446;56.272;43.922;2022-12-13T04:25:43;100659.75;;;-0.04;62.79
74893;BME280;63446;56.272;43.922;2022-12-13T04:28:09;100665.75;;;-0.03;62.81
74893;BME280;63446;56.272;43.922;2022-12-13T04:30:35;100667.13;;;-0.01;62.87
74893;BME280;63446;56.272;43.922;2022-12-13T04:33:01;100663.13;;;-0.03;62.92
74893;BME280;63446;56.272;43.922;2022-12-13T04:35:28;100663.56;;;0.01;62.91
74893;BME280;63446;56.272;43.922;2022-12-13T04:37:53;100660.34;;;-0.02;62.72
74893;BME280;63446;56.272;43.922;2022-12-13T04:40:19;100658.38;;;0.01;62.68
74893;BME280;63446;56.272;43.922;2022-12-13T04:42:46;100668.94;;;-0.01;62.71
74893;BME280;63446;56.272;43.922;2022-12-13T04:45:14;100674.34;;;-0.03;62.62
74893;BME280;63446;56.272;43.922;2022-12-13T04:47:40;100651.94;;;-0.04;62.58
74893;BME280;63446;56.272;43.922;2022-12-13T04:50:07;100656.53;;;-0.06;62.59
74893;BME280;63446;56.272;43.922;2022-12-13T04:52:33;100650.31;;;-0.05;62.63
74893;BME280;63446;56.272;43.922;2022-12-13T04:54:59;100656.53;;;-0.06;62.58
74893;BME280;63446;56.272;43.922;2022-12-13T04:57:24;100651.31;;;-0.06;62.74
74893;BME280;63446;56.272;43.922;2022-12-13T04:59:51;100643.31;;;-0.04;62.60
74893;BME280;63446;56.272;43.922;2022-12-13T05:02:16;100652.75;;;-0.03;62.55
74893;BME280;63446;56.272;43.922;2022-12-13T05:04:46;100652.53;;;-0.02;62.47
74893;BME280;63446;56.272;43.922;2022-12-13T05:07:12;100664.53;;;-0.01;62.52
74893;BME280;63446;56.272;43.922;2022-12-13T05:09:37;100664.75;;;-0.02;62.34
74893;BME280;63446;56.272;43.922;2022-12-13T05:12:03;100653.13;;;-0.06;62.46
74893;BME280;63446;56.272;43.922;2022-12-13T05:14:30;100687.50;;;-0.04;62.36
74893;BME280;63446;56.272;43.922;2022-12-13T05:16:56;100664.31;;;-0.06;62.30
74893;BME280;63446;56.272;43.922;2022-12-13T05:19:22;100663.72;;;-0.08;62.19
74893;BME280;63446;56.272;43.922;2022-12-13T05:21:48;100659.50;;;-0.09;62.11
74893;BME280;63446;56.272;43.922;2022-12-13T05:24:14;100679.69;;;-0.11;62.26
74893;BME280;63446;56.272;43.922;2022-12-13T05:26:39;100672.63;;;-0.17;61.98
74893;BME280;63446;56.272;43.922;2022-12-13T05:29:05;100664.25;;;-0.19;62.06
74893;BME280;63446;56.272;43.922;2022-12-13T05:31:31;100667.44;;;-0.17;61.82
74893;BME280;63446;56.272;43.922;2022-12-13T05:33:57;100664.84;;;-0.17;61.94
74893;BME280;63446;56.272;43.922;2022-12-13T05:36:22;100657.84;;;-0.16;61.78
74893;BME280;63446;56.272;43.922;2022-12-13T05:38:50;100681.22;;;-0.16;61.88
74893;BME280;63446;56.272;43.922;2022-12-13T05:41:18;100667.22;;;-0.22;61.59
74893;BME280;63446;56.272;43.922;2022-12-13T05:43:46;100683.81;;;-0.23;61.66
74893;BME280;63446;56.272;43.922;2022-12-13T05:46:12;100676.97;;;-0.24;61.58
74893;BME280;63446;56.272;43.922;2022-12-13T05:48:39;100674.22;;;-0.22;61.54
74893;BME280;63446;56.272;43.922;2022-12-13T05:51:05;100682.59;;;-0.20;61.49
74893;BME280;63446;56.272;43.922;2022-12-13T05:53:31;100676.59;;;-0.21;61.46
74893;BME280;63446;56.272;43.922;2022-12-13T05:56:00;100678.41;;;-0.21;61.24
74893;BME280;63446;56.272;43.922;2022-12-13T05:58:28;100685.19;;;-0.20;61.10
74893;BME280;63446;56.272;43.922;2022-12-13T06:00:53;100696.38;;;-0.20;61.03
74893;BME280;63446;56.272;43.922;2022-12-13T06:03:19;100694.78;;;-0.21;60.95
74893;BME280;63446;56.272;43.922;2022-12-13T06:05:45;100705.81;;;-0.19;60.71
74893;BME280;63446;56.272;43.922;2022-12-13T06:08:12;100687.41;;;-0.17;60.81
74893;BME280;63446;56.272;43.922;2022-12-13T06:10:38;100706.03;;;-0.14;60.65
74893;BME280;63446;56.272;43.922;2022-12-13T06:13:04;100686.28;;;-0.08;60.60
74893;BME280;63446;56.272;43.922;2022-12-13T06:15:31;100689.28;;;-0.05;60.33
74893;BME280;63446;56.272;43.922;2022-12-13T06:18:00;100697.88;;;-0.04;60.32
74893;BME280;63446;56.272;43.922;2022-12-13T06:20:26;100697.88;;;-0.04;60.25
74893;BME280;63446;56.272;43.922;2022-12-13T06:22:53;100709.09;;;-0.04;59.89
74893;BME280;63446;56.272;43.922;2022-12-13T06:25:19;100711.72;;;-0.04;59.89
74893;BME280;63446;56.272;43.922;2022-12-13T06:27:45;100724.88;;;-0.05;59.68
74893;BME280;63446;56.272;43.922;2022-12-13T06:30:11;100723.88;;;-0.04;59.54
74893;BME280;63446;56.272;43.922;2022-12-13T06:32:38;100720.69;;;-0.06;59.30
74893;BME280;63446;56.272;43.922;2022-12-13T06:35:04;100737.44;;;-0.09;59.20
74893;BME280;63446;56.272;43.922;2022-12-13T06:37:32;100715.84;;;-0.09;59.09
74893;BME280;63446;56.272;43.922;2022-12-13T06:39:58;100705.88;;;-0.06;59.12
74893;BME280;63446;56.272;43.922;2022-12-13T06:42:23;100695.28;;;-0.04;58.92
74893;BME280;63446;56.272;43.922;2022-12-13T06:44:49;100693.31;;;-0.02;58.91
74893;BME280;63446;56.272;43.922;2022-12-13T06:47:17;100708.69;;;-0.01;58.82
74893;BME280;63446;56.272;43.922;2022-12-13T06:49:43;100691.94;;;0.02;58.62
74893;BME280;63446;56.272;43.922;2022-12-13T06:52:10;100692.56;;;0.04;58.51
74893;BME280;63446;56.272;43.922;2022-12-13T06:54:37;100697.19;;;0.09;58.55
74893;BME280;63446;56.272;43.922;2022-12-13T06:57:04;100689.00;;;0.12;58.29
74893;BME280;63446;56.272;43.922;2022-12-13T06:59:29;100686.44;;;0.18;58.36
74893;BME280;63446;56.272;43.922;2022-12-13T07:01:55;100710.88;;;0.24;58.14
74893;BME280;63446;56.272;43.922;2022-12-13T07:04:21;100722.66;;;0.27;57.93
74893;BME280;63446;56.272;43.922;2022-12-13T07:06:47;100719.09;;;0.28;57.95
74893;BME280;63446;56.272;43.922;2022-12-13T07:09:13;100705.28;;;0.27;57.80
74893;BME280;63446;56.272;43.922;2022-12-13T07:11:40;100710.88;;;0.31;57.80
74893;BME280;63446;56.272;43.922;2022-12-13T07:14:06;100707.91;;;0.34;57.69
74893;BME280;63446;56.272;43.922;2022-12-13T07:16:32;100728.97;;;0.45;57.53
74893;BME280;63446;56.272;43.922;2022-12-13T07:19:00;100722.22;;;0.58;57.36
74893;BME280;63446;56.272;43.922;2022-12-13T07:21:27;100746.44;;;0.65;57.04
74893;BME280;63446;56.272;43.922;2022-12-13T07:23:56;100725.84;;;0.63;56.84
74893;BME280;63446;56.272;43.922;2022-12-13T07:26:22;100728.81;;;0.60;56.61
74893;BME280;63446;56.272;43.922;2022-12-13T07:28:48;100740.44;;;0.58;56.65
74893;BME280;63446;56.272;43.922;2022-12-13T07:31:14;100744.81;;;0.51;56.38
74893;BME280;63446;56.272;43.922;2022-12-13T07:33:40;100739.56;;;0.44;56.34
74893;BME280;63446;56.272;43.922;2022-12-13T07:38:37;100738.50;;;0.38;56.57
74893;BME280;63446;56.272;43.922;2022-12-13T07:41:05;100740.53;;;0.36;56.42
74893;BME280;63446;56.272;43.922;2022-12-13T07:43:32;100721.09;;;0.32;56.45
74893;BME280;63446;56.272;43.922;2022-12-13T07:46:00;100720.09;;;0.33;56.40
74893;BME280;63446;56.272;43.922;2022-12-13T07:48:26;100721.53;;;0.36;56.42
74893;BME280;63446;56.272;43.922;2022-12-13T07:50:53;100732.94;;;0.35;56.28
74893;BME280;63446;56.272;43.922;2022-12-13T07:53:19;100742.50;;;0.34;56.22
74893;BME280;63446;56.272;43.922;2022-12-13T07:55:45;100742.91;;;0.31;56.14
74893;BME280;63446;56.272;43.922;2022-12-13T07:58:13;100750.69;;;0.31;56.09
74893;BME280;63446;56.272;43.922;2022-12-13T08:00:42;100749.06;;;0.30;56.13
74893;BME280;63446;56.272;43.922;2022-12-13T08:03:08;100748.09;;;0.31;56.19
74893;BME280;63446;56.272;43.922;2022-12-13T08:05:35;100737.69;;;0.31;56.04
74893;BME280;63446;56.272;43.922;2022-12-13T08:08:03;100730.31;;;0.35;56.00
74893;BME280;63446;56.272;43.922;2022-12-13T08:10:29;100735.31;;;0.36;56.05
74893;BME280;63446;56.272;43.922;2022-12-13T08:12:55;100735.53;;;0.35;55.80
74893;BME280;63446;56.272;43.922;2022-12-13T08:15:22;100741.53;;;0.35;55.71
74893;BME280;63446;56.272;43.922;2022-12-13T08:17:48;100740.72;;;0.35;55.76
74893;BME280;63446;56.272;43.922;2022-12-13T08:20:14;100736.13;;;0.37;55.76
74893;BME280;63446;56.272;43.922;2022-12-13T08:22:40;100730.72;;;0.38;55.84
74893;BME280;63446;56.272;43.922;2022-12-13T08:25:06;100734.34;;;0.44;55.74
74893;BME280;63446;56.272;43.922;2022-12-13T08:27:32;100744.59;;;0.52;55.75
74893;BME280;63446;56.272;43.922;2022-12-13T08:29:58;100737.22;;;0.56;55.56
74893;BME280;63446;56.272;43.922;2022-12-13T08:32:24;100741.41;;;0.57;55.39
74893;BME280;63446;56.272;43.922;2022-12-13T08:34:49;100743.22;;;0.56;55.33
74893;BME280;63446;56.272;43.922;2022-12-13T08:37:15;100740.44;;;0.58;55.20
74893;BME280;63446;56.272;43.922;2022-12-13T08:39:41;100758.44;;;0.59;55.20
74893;BME280;63446;56.272;43.922;2022-12-13T08:42:11;100749.03;;;0.58;55.06
74893;BME280;63446;56.272;43.922;2022-12-13T08:44:41;100751.81;;;0.57;54.94
74893;BME280;63446;56.272;43.922;2022-12-13T08:47:07;100765.63;;;0.57;55.04
74893;BME280;63446;56.272;43.922;2022-12-13T08:49:33;100757.44;;;0.60;55.01
74893;BME280;63446;56.272;43.922;2022-12-13T08:51:59;100763.06;;;0.64;55.07
74893;BME280;63446;56.272;43.922;2022-12-13T08:54:25;100756.25;;;0.63;54.89
74893;BME280;63446;56.272;43.922;2022-12-13T08:56:51;100755.69;;;0.67;54.77
74893;BME280;63446;56.272;43.922;2022-12-13T08:59:17;100748.69;;;0.75;54.82
74893;BME280;63446;56.272;43.922;2022-12-13T09:01:43;100750.34;;;0.82;54.72
74893;BME280;63446;56.272;43.922;2022-12-13T09:04:09;100746.34;;;0.86;54.65
74893;BME280;63446;56.272;43.922;2022-12-13T09:06:35;100747.16;;;0.87;54.41
74893;BME280;63446;56.272;43.922;2022-12-13T09:09:02;100769.38;;;0.89;54.35
74893;BME280;63446;56.272;43.922;2022-12-13T09:11:28;100756.53;;;0.88;54.30
74893;BME280;63446;56.272;43.922;2022-12-13T09:13:54;100750.53;;;0.87;54.39
74893;BME280;63446;56.272;43.922;2022-12-13T09:16:21;100766.78;;;0.89;54.14
74893;BME280;63446;56.272;43.922;2022-12-13T09:18:49;100779.41;;;0.92;54.18
74893;BME280;63446;56.272;43.922;2022-12-13T09:21:15;100798.22;;;0.94;53.90
74893;BME280;63446;56.272;43.922;2022-12-13T09:23:42;100795.63;;;0.94;53.79
74893;BME280;63446;56.272;43.922;2022-12-13T09:26:09;100795.41;;;0.89;53.70
74893;BME280;63446;56.272;43.922;2022-12-13T09:28:37;100788.97;;;0.85;53.61
74893;BME280;63446;56.272;43.922;2022-12-13T09:31:12;100791.16;;;0.82;53.65
74893;BME280;63446;56.272;43.922;2022-12-13T09:33:40;100792.34;;;0.79;53.63
74893;BME280;63446;56.272;43.922;2022-12-13T09:36:07;100798.56;;;0.78;53.58
74893;BME280;63446;56.272;43.922;2022-12-13T09:38:35;100790.13;;;0.76;53.41
74893;BME280;63446;56.272;43.922;2022-12-13T09:43:33;100777.91;;;0.70;53.33
74893;BME280;63446;56.272;43.922;2022-12-13T09:46:03;100781.88;;;0.66;53.26
74893;BME280;63446;56.272;43.922;2022-12-13T09:48:31;100776.06;;;0.64;53.06
74893;BME280;63446;56.272;43.922;2022-12-13T09:50:58;100780.25;;;0.65;53.09
74893;BME280;63446;56.272;43.922;2022-12-13T09:53:24;100794.50;;;0.69;52.93
74893;BME280;63446;56.272;43.922;2022-12-13T09:55:50;100786.69;;;0.69;52.90
74893;BME280;63446;56.272;43.922;2022-12-13T09:58:20;100801.31;;;0.70;52.88
74893;BME280;63446;56.272;43.922;2022-12-13T10:00:48;100814.91;;;0.72;52.81
74893;BME280;63446;56.272;43.922;2022-12-13T10:03:17;100811.94;;;0.75;52.79
74893;BME280;63446;56.272;43.922;2022-12-13T10:05:59;100808.34;;;0.76;52.72
74893;BME280;63446;56.272;43.922;2022-12-13T10:08:31;100817.34;;;0.73;52.68
74893;BME280;63446;56.272;43.922;2022-12-13T10:11:00;100813.53;;;0.69;52.71
74893;BME280;63446;56.272;43.922;2022-12-13T10:13:37;100809.50;;;0.67;52.45
74893;BME280;63446;56.272;43.922;2022-12-13T10:16:10;100810.50;;;0.66;52.52
74893;BME280;63446;56.272;43.922;2022-12-13T10:18:41;100810.69;;;0.64;52.53
74893;BME280;63446;56.272;43.922;2022-12-13T10:21:14;100816.88;;;0.63;52.55
74893;BME280;63446;56.272;43.922;2022-12-13T10:23:42;100823.69;;;0.64;52.51
74893;BME280;63446;56.272;43.922;2022-12-13T10:26:11;100818.69;;;0.63;52.55
74893;BME280;63446;56.272;43.922;2022-12-13T10:28:38;100822.28;;;0.62;52.30
74893;BME280;63446;56.272;43.922;2022-12-13T10:31:04;100814.88;;;0.59;52.24
74893;BME280;63446;56.272;43.922;2022-12-13T10:33:35;100827.81;;;0.52;52.08
74893;BME280;63446;56.272;43.922;2022-12-13T10:36:06;100806.97;;;0.45;52.22
74893;BME280;63446;56.272;43.922;2022-12-13T10:38:41;100810.78;;;0.43;52.25
74893;BME280;63446;56.272;43.922;2022-12-13T10:41:37;100817.94;;;0.41;52.35
74893;BME280;63446;56.272;43.922;2022-12-13T10:44:14;100820.38;;;0.42;52.32
74893;BME280;63446;56.272;43.922;2022-12-13T10:46:48;100826.16;;;0.44;52.32
74893;BME280;63446;56.272;43.922;2022-12-13T10:49:23;100827.41;;;0.48;52.29
74893;BME280;63446;56.272;43.922;2022-12-13T10:51:50;100818.41;;;0.51;52.27
74893;BME280;63446;56.272;43.922;2022-12-13T10:54:32;100817.84;;;0.56;52.16
74893;BME280;63446;56.272;43.922;2022-12-13T10:57:01;100812.25;;;0.59;52.23
74893;BME280;63446;56.272;43.922;2022-12-13T10:59:36;100794.66;;;0.61;52.30
74893;BME280;63446;56.272;43.922;2022-12-13T11:04:50;100811.31;;;0.73;52.27
74893;BME280;63446;56.272;43.922;2022-12-13T11:07:26;100815.75;;;0.79;52.17
74893;BME280;63446;56.272;43.922;2022-12-13T11:09:52;100819.78;;;0.82;52.20
74893;BME280;63446;56.272;43.922;2022-12-13T11:12:23;100835.56;;;0.80;52.14
74893;BME280;63446;56.272;43.922;2022-12-13T11:14:57;100825.00;;;0.82;52.09
74893;BME280;63446;56.272;43.922;2022-12-13T11:17:26;100824.75;;;0.77;51.80
74893;BME280;63446;56.272;43.922;2022-12-13T11:19:59;100820.13;;;0.72;51.95
74893;BME280;63446;56.272;43.922;2022-12-13T11:22:32;100815.28;;;0.69;51.83
74893;BME280;63446;56.272;43.922;2022-12-13T11:25:07;100817.72;;;0.70;51.98
74893;BME280;63446;56.272;43.922;2022-12-13T11:30:18;100832.53;;;0.70;51.98
74893;BME280;63446;56.272;43.922;2022-12-13T11:35:35;100843.91;;;0.69;52.03
74893;BME280;63446;56.272;43.922;2022-12-13T11:41:08;100857.13;;;0.67;51.96
74893;BME280;63446;56.272;43.922;2022-12-13T11:43:51;100859.94;;;0.66;51.89
74893;BME280;63446;56.272;43.922;2022-12-13T11:46:28;100860.31;;;0.63;51.82
74893;BME280;63446;56.272;43.922;2022-12-13T11:49:02;100862.28;;;0.61;51.85
74893;BME280;63446;56.272;43.922;2022-12-13T11:51:40;100862.47;;;0.59;51.89
74893;BME280;63446;56.272;43.922;2022-12-13T11:54:49;100865.88;;;0.60;51.99
74893;BME280;63446;56.272;43.922;2022-12-13T11:59:53;100860.25;;;0.56;51.77
74893;BME280;63446;56.272;43.922;2022-12-13T12:02:31;100858.66;;;0.55;52.03
74893;BME280;63446;56.272;43.922;2022-12-13T12:05:02;100848.41;;;0.54;52.00
74893;BME280;63446;56.272;43.922;2022-12-13T12:10:16;100846.22;;;0.51;52.22
74893;BME280;63446;56.272;43.922;2022-12-13T12:12:50;100836.38;;;0.46;52.13
74893;BME280;63446;56.272;43.922;2022-12-13T12:15:24;100844.75;;;0.41;52.19
74893;BME280;63446;56.272;43.922;2022-12-13T12:17:54;100849.94;;;0.41;52.35
74893;BME280;63446;56.272;43.922;2022-12-13T12:20:27;100854.19;;;0.42;52.27
74893;BME280;63446;56.272;43.922;2022-12-13T12:23:59;100873.19;;;0.43;52.36
74893;BME280;63446;56.272;43.922;2022-12-13T12:25:59;100851.38;;;0.44;52.41
74893;BME280;63446;56.272;43.922;2022-12-13T12:42:18;100876.47;;;0.30;52.12
74893;BME280;63446;56.272;43.922;2022-12-13T12:47:33;100868.06;;;0.28;52.14
74893;BME280;63446;56.272;43.922;2022-12-13T13:01:08;100889.97;;;0.19;51.97
74893;BME280;63446;56.272;43.922;2022-12-13T13:03:40;100889.53;;;0.15;51.99
74893;BME280;63446;56.272;43.922;2022-12-13T13:06:40;100888.28;;;0.11;51.82
74893;BME280;63446;56.272;43.922;2022-12-13T13:09:11;100886.69;;;0.10;51.87
74893;BME280;63446;56.272;43.922;2022-12-13T13:11:40;100877.66;;;0.06;51.81
74893;BME280;63446;56.272;43.922;2022-12-13T13:16:38;100888.06;;;0.06;51.61
74893;BME280;63446;56.272;43.922;2022-12-13T13:26:44;100880.19;;;-0.01;51.61
74893;BME280;63446;56.272;43.922;2022-12-13T13:32:03;100878.00;;;-0.04;51.72
74893;BME280;63446;56.272;43.922;2022-12-13T13:34:37;100880.69;;;-0.12;51.29
74893;BME280;63446;56.272;43.922;2022-12-13T13:42:22;100883.25;;;-0.18;51.53
74893;BME280;63446;56.272;43.922;2022-12-13T13:55:58;100883.81;;;-0.23;51.68
74893;BME280;63446;56.272;43.922;2022-12-13T14:01:47;100896.72;;;-0.30;51.79
74893;BME280;63446;56.272;43.922;2022-12-13T14:24:58;100902.16;;;-0.61;51.66
74893;BME280;63446;56.272;43.922;2022-12-13T14:30:13;100901.44;;;-0.69;51.63
74893;BME280;63446;56.272;43.922;2022-12-13T14:32:40;100914.41;;;-0.69;51.61
74893;BME280;63446;56.272;43.922;2022-12-13T14:35:19;100922.03;;;-0.68;51.75
74893;BME280;63446;56.272;43.922;2022-12-13T14:37:54;100896.69;;;-0.66;51.74
74893;BME280;63446;56.272;43.922;2022-12-13T14:42:51;100911.03;;;-0.70;51.46
74893;BME280;63446;56.272;43.922;2022-12-13T14:45:24;100917.41;;;-0.72;51.37
74893;BME280;63446;56.272;43.922;2022-12-13T14:47:54;100917.31;;;-0.79;51.53
74893;BME280;63446;56.272;43.922;2022-12-13T14:50:23;100926.25;;;-0.82;51.49
74893;BME280;63446;56.272;43.922;2022-12-13T14:52:50;100926.25;;;-0.96;51.51
74893;BME280;63446;56.272;43.922;2022-12-13T14:55:34;100933.22;;;-1.12;51.56
74893;BME280;63446;56.272;43.922;2022-12-13T14:58:12;100932.13;;;-1.32;51.53
74893;BME280;63446;56.272;43.922;2022-12-13T15:00:42;100935.84;;;-1.50;51.79
74893;BME280;63446;56.272;43.922;2022-12-13T15:03:22;100924.78;;;-1.66;51.86